Time;durP1;ratioP1;P1;durP2;ratioP2;P2;SDS_P1;SDS_P2;PMS_P1;PMS_P2;Temp;Humidity;BMP_temperature;BMP_pressure;BME280_temperature;BME280_humidity;BME280_pressure;Samples;Min_cycle;Max_cycle;Signal;HPM_P1;HPM_P2
2023/01/07 00:01:18;;;;;;;;;3.00;3.00;;;;;12.18;62.16;101254.66;5059999;28;45439;-76
2023/01/07 00:03:45;;;;;;;;;4.00;4.00;;;;;13.07;62.36;101400.13;5041487;28;48000;-74
2023/01/07 00:06:19;;;;;;;;;4.00;4.00;;;;;13.01;62.40;101391.84;5059651;28;45495;-77
2023/01/07 00:08:46;;;;;;;;;5.00;4.00;;;;;12.94;62.48;101375.56;5059669;28;45278;-75
2023/01/07 00:11:15;;;;;;;;;4.33;4.33;;;;;13.02;62.58;101385.53;5060007;28;45461;-75
2023/01/07 00:13:42;;;;;;;;;4.67;4.67;;;;;13.02;62.15;101386.38;5041263;28;45385;-75
2023/01/07 00:16:11;;;;;;;;;3.00;3.00;;;;;12.35;62.47;101277.09;5059258;28;45494;-76
2023/01/07 00:18:37;;;;;;;;;3.67;3.67;;;;;12.46;62.50;101295.63;5059594;28;45287;-75
2023/01/07 00:21:06;;;;;;;;;7.00;6.00;;;;;12.30;62.16;101258.03;5041840;28;45312;-76
2023/01/07 00:23:32;;;;;;;;;6.00;6.00;;;;;12.85;62.16;101349.75;5042144;28;49490;-74
2023/01/07 00:26:01;;;;;;;;;4.67;3.67;;;;;12.88;62.18;101349.47;5041471;28;45378;-74
2023/01/07 00:28:26;;;;;;;;;4.33;4.00;;;;;12.28;62.23;101244.84;5060847;28;45297;-75
2023/01/07 00:30:57;;;;;;;;;5.00;5.00;;;;;12.83;62.33;101337.53;5060544;28;45322;-74
2023/01/07 00:33:22;;;;;;;;;6.00;4.00;;;;;12.77;61.90;101312.25;5059562;28;46051;-76
2023/01/07 00:35:48;;;;;;;;;4.00;3.00;;;;;12.94;62.60;101332.03;5058841;28;53788;-73
2023/01/07 00:38:13;;;;;;;;;4.33;4.33;;;;;11.96;61.78;101167.03;5059121;28;45245;-75
2023/01/07 00:40:38;;;;;;;;;5.00;3.33;;;;;12.66;61.61;101281.25;5061572;28;45443;-74
2023/01/07 00:43:04;;;;;;;;;5.33;5.00;;;;;12.30;61.91;101218.03;5043556;28;53488;-73
2023/01/07 00:45:36;;;;;;;;;4.67;4.67;;;;;12.90;62.07;101301.28;5059225;28;45233;-74
2023/01/07 00:48:03;;;;;;;;;2.67;2.33;;;;;12.90;62.05;101310.13;5058983;28;45372;-74
2023/01/07 00:50:31;;;;;;;;;3.67;3.67;;;;;12.60;62.39;101256.97;5059157;28;45425;-75
2023/01/07 00:52:57;;;;;;;;;6.67;6.67;;;;;12.68;62.24;101271.28;5058457;28;47080;-75
2023/01/07 00:55:24;;;;;;;;;2.33;2.33;;;;;12.92;62.34;101313.47;5058761;28;45373;-75
2023/01/07 00:57:50;;;;;;;;;4.00;3.00;;;;;12.04;61.97;101148.53;5040866;28;45339;-74
2023/01/07 01:00:17;;;;;;;;;2.00;2.00;;;;;12.53;62.02;101242.53;5040805;28;45633;-75
2023/01/07 01:02:44;;;;;;;;;5.67;5.67;;;;;12.06;61.82;101130.56;5058406;28;45735;-75
2023/01/07 01:05:10;;;;;;;;;4.00;3.00;;;;;12.12;61.99;101151.28;5040642;28;45501;-77
2023/01/07 01:07:36;;;;;;;;;3.33;3.00;;;;;12.29;61.89;101177.22;5040630;28;45521;-72
2023/01/07 01:10:02;;;;;;;;;4.67;3.00;;;;;12.91;62.25;101269.09;5058753;28;45426;-75
2023/01/07 01:12:27;;;;;;;;;3.00;3.00;;;;;12.67;62.05;101231.41;5040338;28;45398;-75
2023/01/07 01:14:53;;;;;;;;;3.67;2.67;;;;;12.64;62.19;101218.38;5040239;28;45508;-75
2023/01/07 01:17:19;;;;;;;;;5.00;3.00;;;;;12.88;62.45;101258.72;5058443;28;45406;-74
2023/01/07 01:19:45;;;;;;;;;5.00;4.00;;;;;12.45;62.33;101196.13;5060487;28;45368;-77
2023/01/07 01:22:10;;;;;;;;;3.33;3.33;;;;;12.21;61.90;101147.75;5058268;28;46275;-75
2023/01/07 01:24:35;;;;;;;;;4.00;4.00;;;;;12.49;62.41;101186.84;5058353;28;46928;-74
2023/01/07 01:27:01;;;;;;;;;6.33;4.00;;;;;12.82;62.10;101229.97;5058707;28;45769;-76
2023/01/07 01:29:26;;;;;;;;;3.67;3.67;;;;;12.89;62.11;101240.88;5040516;28;45286;-75
2023/01/07 01:31:52;;;;;;;;;5.00;3.00;;;;;12.17;62.08;101127.69;5058154;28;46717;-75
2023/01/07 01:34:17;;;;;;;;;4.00;3.00;;;;;12.93;62.17;101243.09;5057972;28;45361;-74
2023/01/07 01:36:43;;;;;;;;;4.00;4.00;;;;;12.54;62.03;101199.72;5058179;28;45262;-72
2023/01/07 01:39:08;;;;;;;;;3.00;3.00;;;;;12.46;62.09;101188.97;5040383;28;45367;-73
2023/01/07 01:41:34;;;;;;;;;2.33;2.33;;;;;12.48;62.05;101177.16;5041379;28;56045;-74
2023/01/07 01:43:59;;;;;;;;;2.33;2.33;;;;;12.78;62.18;101225.88;5058997;28;45245;-75
2023/01/07 01:46:35;;;;;;;;;3.33;1.00;;;;;12.82;62.43;101237.97;5039933;28;45507;-74
2023/01/07 01:49:06;;;;;;;;;4.33;3.00;;;;;12.89;62.12;101232.88;5040488;28;45463;-72
2023/01/07 01:51:37;;;;;;;;;3.00;3.00;;;;;12.79;62.16;101208.88;5039806;28;47629;-75
2023/01/07 01:54:06;;;;;;;;;4.00;4.00;;;;;12.88;61.99;101236.53;5058004;28;45353;-73
2023/01/07 01:56:35;;;;;;;;;3.67;3.67;;;;;12.79;61.94;101216.91;5057961;28;45262;-73
2023/01/07 01:59:09;;;;;;;;;4.00;3.00;;;;;12.80;62.21;101218.56;5058178;28;45331;-72
2023/01/07 02:01:35;;;;;;;;;3.00;3.00;;;;;12.06;61.95;101096.75;5057663;28;45206;-74
2023/01/07 02:04:07;;;;;;;;;4.00;3.67;;;;;12.79;62.29;101200.88;5040444;28;45243;-75
2023/01/07 02:06:36;;;;;;;;;2.33;2.33;;;;;12.91;62.25;101204.22;5058753;28;45175;-75
2023/01/07 02:09:01;;;;;;;;;4.33;4.00;;;;;12.45;62.05;101134.78;5057926;28;45408;-74
2023/01/07 02:11:27;;;;;;;;;2.33;2.33;;;;;12.39;62.05;101132.69;5057171;28;50350;-72
2023/01/07 02:13:58;;;;;;;;;4.00;4.00;;;;;12.85;62.38;101211.00;5039479;28;45478;-74
2023/01/07 02:16:58;;;;;;;;;2.33;2.33;;;;;12.62;62.21;101172.34;5059115;28;45251;-73
2023/01/07 02:19:26;;;;;;;;;4.33;3.00;;;;;12.89;61.99;101206.19;5078027;27;45509;-75
2023/01/07 02:21:51;;;;;;;;;2.00;2.00;;;;;12.83;62.21;101199.63;5076012;28;46849;-74
2023/01/07 02:24:52;;;;;;;;;2.00;2.00;;;;;12.82;62.40;101197.94;5077565;28;45308;-75
2023/01/07 02:27:43;;;;;;;;;3.33;2.67;;;;;12.34;62.36;101121.63;4998391;28;45362;-74
2023/01/07 02:30:47;;;;;;;;;3.00;3.00;;;;;12.52;62.82;101156.34;5075415;27;45493;-72
2023/01/07 02:33:49;;;;;;;;;2.00;2.00;;;;;12.10;62.99;101076.81;5077198;27;46818;-74
2023/01/07 02:37:01;;;;;;;;;3.00;3.00;;;;;12.63;62.59;101168.69;5077220;28;45350;-74
2023/01/07 02:39:38;;;;;;;;;3.33;3.00;;;;;12.79;63.17;101192.88;5077548;27;45520;-73
2023/01/07 02:42:21;;;;;;;;;4.33;3.33;;;;;12.75;62.77;101188.84;5077566;27;45572;-74
2023/01/07 02:45:03;;;;;;;;;5.67;2.00;;;;;12.57;62.86;101153.25;5077899;27;46289;-73
2023/01/07 02:47:35;;;;;;;;;3.00;3.00;;;;;12.70;63.22;101172.44;5078450;27;45483;-73
2023/01/07 02:50:00;;;;;;;;;4.00;4.00;;;;;11.96;62.83;101039.13;5078534;27;45298;-75
2023/01/07 02:52:29;;;;;;;;;4.00;2.00;;;;;12.81;62.65;101172.22;5078479;28;45592;-74
2023/01/07 02:55:07;;;;;;;;;2.00;2.00;;;;;12.59;62.76;101136.09;5077621;28;47178;-73
2023/01/07 02:58:16;;;;;;;;;3.00;3.00;;;;;12.79;62.79;101150.19;5078606;27;45384;-74
2023/01/07 03:00:56;;;;;;;;;3.33;3.00;;;;;12.89;62.03;101161.66;5077402;28;45478;-75
2023/01/07 03:04:12;;;;;;;;;3.33;2.00;;;;;12.89;61.97;101152.81;5078571;28;45496;-74
2023/01/07 03:06:56;;;;;;;;;3.00;3.00;;;;;12.88;61.46;101151.97;5046616;27;46563;-74
2023/01/07 03:09:38;;;;;;;;;3.00;2.00;;;;;12.73;61.40;101121.44;5081607;27;45455;-74
2023/01/07 03:12:09;;;;;;;;;1.33;1.33;;;;;12.85;61.50;101146.09;5082291;27;45440;-73
2023/01/07 03:14:46;;;;;;;;;3.00;3.00;;;;;12.84;60.77;101136.44;5084175;27;45535;-74
2023/01/07 03:17:18;;;;;;;;;2.00;2.00;;;;;12.85;61.20;101127.44;5062155;27;46716;-72
2023/01/07 03:19:49;;;;;;;;;2.00;2.00;;;;;12.62;60.62;101086.97;5060157;28;45547;-74
2023/01/07 03:22:19;;;;;;;;;2.33;2.00;;;;;12.83;60.56;101127.59;5060401;28;45542;-75
2023/01/07 03:24:50;;;;;;;;;2.67;2.67;;;;;12.79;60.93;101118.16;5060210;28;45559;-75
2023/01/07 03:27:19;;;;;;;;;2.00;2.00;;;;;12.65;60.69;101084.00;5060027;28;46431;-73
2023/01/07 03:29:47;;;;;;;;;2.67;2.67;;;;;12.87;60.30;101110.28;5060167;28;45421;-72
2023/01/07 03:32:22;;;;;;;;;2.00;2.00;;;;;12.78;60.11;101103.16;5060263;28;45390;-74
2023/01/07 03:34:48;;;;;;;;;2.00;2.00;;;;;12.81;60.00;101102.84;5042197;28;45280;-73
2023/01/07 03:37:18;;;;;;;;;2.00;2.00;;;;;12.40;59.79;101019.69;5059959;28;46476;-72
2023/01/07 03:39:46;;;;;;;;;4.67;3.67;;;;;12.27;59.74;100981.06;5041607;28;45453;-74
2023/01/07 03:44:58;;;;;;;;;2.33;1.00;;;;;12.78;59.65;101061.31;5060146;28;45316;-75
2023/01/07 03:47:25;;;;;;;;;1.67;1.00;;;;;12.68;59.58;101033.88;5061500;28;46030;-74
2023/01/07 03:49:50;;;;;;;;;2.00;2.00;;;;;12.82;59.64;101043.19;5060028;28;45408;-73
2023/01/07 03:52:16;;;;;;;;;4.00;3.00;;;;;12.93;59.35;101069.63;5059950;28;45151;-72
2023/01/07 03:54:41;;;;;;;;;1.33;1.33;;;;;12.64;59.24;101021.81;5060106;28;45273;-74
2023/01/07 03:57:07;;;;;;;;;1.00;1.00;;;;;12.12;59.26;100940.75;5059783;28;46432;-73
2023/01/07 03:59:32;;;;;;;;;2.67;2.67;;;;;12.56;59.09;101012.88;5059599;28;45351;-74
2023/01/07 04:01:57;;;;;;;;;2.00;2.00;;;;;12.82;59.25;101072.53;5041243;28;45330;-75
2023/01/07 04:04:22;;;;;;;;;1.00;1.00;;;;;11.50;59.29;100833.94;5059788;28;45463;-74
2023/01/07 04:06:48;;;;;;;;;3.00;3.00;;;;;12.40;59.48;100971.69;5059378;28;46489;-73
2023/01/07 04:09:14;;;;;;;;;2.67;1.00;;;;;12.55;59.14;100985.38;5041599;28;45494;-74
2023/01/07 04:11:40;;;;;;;;;1.33;1.33;;;;;12.86;59.48;101031.22;5059836;28;45258;-74
2023/01/07 04:14:05;;;;;;;;;3.00;2.67;;;;;12.69;59.14;101000.03;5059695;28;45531;-74
2023/01/07 04:16:31;;;;;;;;;2.00;2.00;;;;;11.98;59.33;100877.28;5062552;28;47574;-73
2023/01/07 04:18:56;;;;;;;;;2.00;2.00;;;;;13.00;58.65;101035.16;5078099;28;45329;-74
2023/01/07 04:21:21;;;;;;;;;2.00;2.00;;;;;12.71;59.26;100980.19;5079643;27;45753;-74
2023/01/07 04:23:47;;;;;;;;;1.00;1.00;;;;;12.94;59.31;101023.28;5080136;27;45485;-76
2023/01/07 04:26:12;;;;;;;;;1.00;1.00;;;;;12.85;59.30;101002.84;5079041;27;58791;-74
2023/01/07 04:28:37;;;;;;;;;1.00;1.00;;;;;12.76;59.30;100983.25;5079429;27;45608;-73
2023/01/07 04:31:03;;;;;;;;;2.00;1.00;;;;;12.72;59.37;100975.72;5079859;27;45200;-74
2023/01/07 04:33:28;;;;;;;;;2.00;2.00;;;;;12.63;59.19;100966.81;5078469;28;45618;-75
2023/01/07 04:35:56;;;;;;;;;2.00;2.00;;;;;12.61;59.33;100958.09;5079188;27;47030;-74
2023/01/07 04:38:22;;;;;;;;;1.00;1.00;;;;;12.19;59.61;100885.84;5079574;27;45488;-74
2023/01/07 04:40:47;;;;;;;;;2.00;2.00;;;;;12.70;60.03;100980.34;5079414;27;45365;-73
2023/01/07 04:43:12;;;;;;;;;2.67;2.67;;;;;12.69;59.54;100976.84;5079530;27;45440;-73
2023/01/07 04:45:38;;;;;;;;;2.33;2.33;;;;;12.17;59.60;100895.81;5079245;27;45347;-74
2023/01/07 04:48:03;;;;;;;;;3.25;2.00;;;;;11.72;59.62;100810.53;5077876;28;45546;-72
2023/01/07 04:50:28;;;;;;;;;4.33;4.33;;;;;12.36;59.71;100919.69;5079491;27;45350;-72
2023/01/07 04:52:54;;;;;;;;;1.00;1.00;;;;;12.37;59.79;100918.69;5078165;28;45470;-72
2023/01/07 04:55:19;;;;;;;;;2.67;2.33;;;;;12.44;59.97;100935.78;5078506;27;60183;-73
2023/01/07 04:57:44;;;;;;;;;2.00;2.00;;;;;12.46;60.42;100944.47;5079290;27;45305;-74
2023/01/07 05:00:10;;;;;;;;;3.00;2.00;;;;;12.04;60.77;100879.38;5079059;27;45445;-75
2023/01/07 05:02:35;;;;;;;;;4.00;4.00;;;;;12.33;61.40;100933.31;5078260;28;45616;-74
2023/01/07 05:05:01;;;;;;;;;3.67;3.67;;;;;12.34;61.19;100928.81;5078438;28;48087;-73
2023/01/07 05:07:26;;;;;;;;;2.67;2.67;;;;;12.28;61.51;100942.75;5078714;27;45488;-73
2023/01/07 05:09:52;;;;;;;;;2.67;2.67;;;;;12.23;62.13;100927.22;5078924;27;45391;-74
2023/01/07 05:12:17;;;;;;;;;3.00;3.00;;;;;12.00;62.14;100883.28;5079040;28;46321;-74
2023/01/07 05:14:42;;;;;;;;;4.33;3.33;;;;;11.76;62.60;100842.06;5078436;27;46509;-73
2023/01/07 05:17:08;;;;;;;;;4.00;4.00;;;;;11.90;62.52;100872.72;5060866;27;45302;-73
2023/01/07 05:19:33;;;;;;;;;7.33;3.67;;;;;11.55;62.91;100821.00;5060116;28;45578;-74
2023/01/07 05:21:58;;;;;;;;;3.00;3.00;;;;;11.54;63.67;100834.47;5042880;28;45645;-73
2023/01/07 05:24:24;;;;;;;;;3.00;3.00;;;;;11.94;63.74;100910.56;5058366;28;46361;-73
2023/01/07 05:26:49;;;;;;;;;5.00;3.67;;;;;11.73;63.81;100874.31;5057861;28;45478;-72
2023/01/07 05:29:14;;;;;;;;;4.67;4.67;;;;;11.92;64.13;100907.19;5059065;28;45230;-74
2023/01/07 05:31:40;;;;;;;;;3.00;3.00;;;;;11.84;64.02;100899.97;5040431;28;55816;-72
2023/01/07 05:34:06;;;;;;;;;3.67;3.67;;;;;11.87;64.71;100883.66;5039802;28;45277;-74
2023/01/07 05:36:31;;;;;;;;;4.00;3.33;;;;;11.40;64.62;100819.81;5039701;28;45526;-72
2023/01/07 05:38:57;;;;;;;;;3.33;3.33;;;;;11.78;65.22;100880.06;5057924;28;45252;-75
2023/01/07 05:41:22;;;;;;;;;6.00;5.00;;;;;11.77;64.60;100889.00;5058071;28;45578;-73
2023/01/07 05:43:48;;;;;;;;;5.00;4.33;;;;;10.39;64.67;100654.88;5058393;28;46572;-74
2023/01/07 05:46:13;;;;;;;;;4.67;4.67;;;;;11.53;65.18;100856.75;5057893;28;45433;-74
2023/01/07 05:48:39;;;;;;;;;5.33;5.33;;;;;11.71;64.98;100873.63;5058321;28;45485;-74
2023/01/07 05:51:04;;;;;;;;;5.00;5.00;;;;;11.35;65.16;100821.25;5039273;28;51218;-74
2023/01/07 05:53:30;;;;;;;;;8.00;6.00;;;;;11.54;65.78;100877.06;5057527;28;45687;-74
2023/01/07 05:55:56;;;;;;;;;3.67;3.67;;;;;11.53;65.51;100876.22;5057632;28;45371;-74
2023/01/07 05:58:22;;;;;;;;;5.00;5.00;;;;;11.51;65.83;100880.03;5058006;28;45353;-73
2023/01/07 06:00:47;;;;;;;;;7.67;6.00;;;;;11.36;65.57;100868.16;5057638;28;45400;-73
2023/01/07 06:03:13;;;;;;;;;5.00;5.00;;;;;11.11;65.77;100830.59;5056270;28;47286;-73
2023/01/07 06:05:38;;;;;;;;;5.33;5.33;;;;;11.07;66.09;100839.84;5058441;28;45266;-74
2023/01/07 06:08:04;;;;;;;;;5.00;4.33;;;;;10.92;66.41;100818.19;5040041;28;45536;-74
2023/01/07 06:10:29;;;;;;;;;3.33;3.33;;;;;10.80;66.74;100815.81;5039908;28;45586;-73
2023/01/07 06:12:54;;;;;;;;;3.00;3.00;;;;;10.68;66.60;100801.03;5057547;28;45577;-74
2023/01/07 06:15:20;;;;;;;;;6.00;6.00;;;;;10.81;66.95;100830.78;5057311;28;45446;-74
2023/01/07 06:17:45;;;;;;;;;6.00;6.00;;;;;11.04;66.96;100874.72;5057543;28;45289;-73
2023/01/07 06:20:13;;;;;;;;;4.67;4.67;;;;;11.05;67.13;100879.06;5039557;28;45567;-74
2023/01/07 06:22:39;;;;;;;;;6.00;6.00;;;;;11.05;66.66;100881.72;5057265;28;45696;-73
2023/01/07 06:25:04;;;;;;;;;5.67;4.67;;;;;10.82;66.84;100837.81;5057238;28;45377;-75
2023/01/07 06:27:30;;;;;;;;;5.67;5.33;;;;;10.06;67.13;100718.16;5057519;28;45707;-74
2023/01/07 06:29:55;;;;;;;;;7.33;4.33;;;;;11.05;66.58;100886.22;5040288;28;45390;-72
2023/01/07 06:32:20;;;;;;;;;6.00;5.00;;;;;10.53;66.79;100795.31;5039351;28;47173;-72
2023/01/07 06:34:46;;;;;;;;;7.33;6.00;;;;;11.01;66.38;100880.31;5057188;28;45384;-73
2023/01/07 06:37:13;;;;;;;;;6.00;5.00;;;;;10.94;66.62;100873.91;5041044;28;45223;-73
2023/01/07 06:39:39;;;;;;;;;3.50;3.50;;;;;10.53;67.16;100812.09;5046028;28;45513;-75
2023/01/07 06:42:04;;;;;;;;;5.33;5.33;;;;;10.81;66.80;100874.22;5064001;28;45582;-75
2023/01/07 06:44:29;;;;;;;;;3.00;3.00;;;;;10.69;66.77;100869.19;5045726;28;45503;-74
2023/01/07 06:46:55;;;;;;;;;8.67;6.00;;;;;10.61;66.99;100862.75;5063952;28;45301;-73
2023/01/07 06:49:20;;;;;;;;;4.33;4.33;;;;;10.74;66.93;100873.09;5063919;28;45265;-76
2023/01/07 06:51:45;;;;;;;;;8.00;5.00;;;;;10.71;66.73;100867.22;5045295;28;47031;-73
2023/01/07 06:54:11;;;;;;;;;4.33;4.33;;;;;9.98;66.87;100745.41;5063645;28;45257;-75
2023/01/07 06:56:36;;;;;;;;;5.33;4.00;;;;;10.47;66.74;100818.00;5063781;28;45321;-74
2023/01/07 06:59:01;;;;;;;;;6.00;4.67;;;;;10.74;66.77;100856.28;5063372;28;49167;-74
2023/01/07 07:01:27;;;;;;;;;6.67;5.67;;;;;10.22;66.85;100781.38;5045139;28;47324;-74
2023/01/07 07:03:52;;;;;;;;;7.00;5.00;;;;;10.65;66.99;100852.69;5045316;28;45395;-74
2023/01/07 07:06:20;;;;;;;;;6.33;5.00;;;;;10.33;67.32;100805.97;5065475;28;45788;-75
2023/01/07 07:08:46;;;;;;;;;6.00;6.00;;;;;10.44;67.05;100820.94;5065784;28;45337;-74
2023/01/07 07:11:11;;;;;;;;;6.00;6.00;;;;;10.39;67.47;100825.81;5063949;28;45633;-75
2023/01/07 07:13:36;;;;;;;;;5.33;5.33;;;;;10.40;67.26;100827.50;5045769;28;45334;-74
2023/01/07 07:16:02;;;;;;;;;5.00;5.00;;;;;10.16;67.95;100792.50;5058847;28;45439;-74
2023/01/07 07:18:27;;;;;;;;;7.00;6.00;;;;;10.18;67.77;100793.22;5083099;28;45208;-74
2023/01/07 07:20:53;;;;;;;;;5.67;4.67;;;;;10.33;68.06;100823.72;5084261;27;45794;-73
2023/01/07 07:23:18;;;;;;;;;5.33;5.33;;;;;9.91;67.73;100754.91;5084591;27;45240;-74
2023/01/07 07:25:43;;;;;;;;;6.00;5.33;;;;;10.07;67.79;100784.41;5083353;28;50789;-74
2023/01/07 07:28:09;;;;;;;;;7.33;6.33;;;;;10.10;67.46;100809.84;5083874;27;45491;-74
2023/01/07 07:30:36;;;;;;;;;7.00;5.00;;;;;9.90;67.15;100760.38;5081957;28;48011;-75
2023/01/07 07:33:02;;;;;;;;;7.00;6.00;;;;;10.26;68.00;100825.28;5083398;27;45266;-73
2023/01/07 07:35:28;;;;;;;;;4.00;4.00;;;;;10.28;67.44;100823.31;5073387;28;45475;-73
2023/01/07 07:37:53;;;;;;;;;5.33;4.67;;;;;10.20;67.21;100825.78;5083650;27;45527;-73
2023/01/07 07:40:19;;;;;;;;;6.67;6.67;;;;;10.16;67.84;100816.41;5083098;27;46372;-73
2023/01/07 07:42:44;;;;;;;;;4.00;4.00;;;;;9.96;67.61;100781.88;5083189;27;45343;-74
2023/01/07 07:45:10;;;;;;;;;8.67;7.00;;;;;9.51;67.44;100706.41;5086447;28;45323;-74
2023/01/07 07:47:35;;;;;;;;;3.33;3.33;;;;;9.30;67.30;100667.56;5082211;27;45303;-73
2023/01/07 07:50:01;;;;;;;;;1.00;1.00;;;;;9.57;67.11;100721.75;5078924;28;45665;-73
2023/01/07 07:52:26;;;;;;;;;7.00;4.67;;;;;9.79;67.56;100742.72;5079698;28;45183;-74
2023/01/07 07:54:51;;;;;;;;;6.67;5.67;;;;;9.82;67.16;100752.28;5070369;28;48670;-76
2023/01/07 07:57:17;;;;;;;;;4.67;4.67;;;;;10.15;67.35;100818.25;5072349;28;45637;-74
2023/01/07 07:59:42;;;;;;;;;5.33;5.00;;;;;10.09;67.17;100802.88;5060380;27;46504;-74
2023/01/07 08:02:12;;;;;;;;;5.00;5.00;;;;;9.48;66.97;100690.75;5078517;28;45243;-73
2023/01/07 08:04:37;;;;;;;;;5.00;4.00;;;;;9.12;66.91;100619.63;5071879;28;45488;-75
2023/01/07 08:07:03;;;;;;;;;7.67;6.33;;;;;9.58;66.68;100702.22;5073867;28;45530;-75
2023/01/07 08:09:28;;;;;;;;;6.00;5.00;;;;;9.24;66.90;100646.06;5061832;27;46374;-75
2023/01/07 08:11:53;;;;;;;;;6.33;5.33;;;;;10.03;66.68;100774.22;5065401;28;45600;-75
2023/01/07 08:14:19;;;;;;;;;5.00;5.00;;;;;10.13;66.65;100783.00;5066779;28;45501;-75
2023/01/07 08:16:44;;;;;;;;;7.00;7.00;;;;;9.66;66.65;100705.03;5074954;28;45499;-75
2023/01/07 08:19:10;;;;;;;;;5.67;5.67;;;;;9.63;66.63;100694.69;5074819;28;48700;-76
2023/01/07 08:21:35;;;;;;;;;5.33;5.33;;;;;10.03;66.67;100767.09;5059193;28;45509;-74
2023/01/07 08:24:01;;;;;;;;;5.67;4.67;;;;;9.91;66.56;100740.78;5059465;28;45251;-75
2023/01/07 08:26:26;;;;;;;;;4.00;4.00;;;;;9.49;66.31;100666.72;5069322;28;45438;-75
2023/01/07 08:28:51;;;;;;;;;5.67;5.67;;;;;10.11;65.90;100769.03;5063792;28;48062;-75
2023/01/07 08:31:17;;;;;;;;;6.00;6.00;;;;;10.29;65.95;100793.13;5059286;28;45298;-74
2023/01/07 08:33:42;;;;;;;;;5.00;5.00;;;;;9.55;66.05;100652.06;5077502;28;45497;-73
2023/01/07 08:36:08;;;;;;;;;5.00;5.00;;;;;10.32;65.42;100774.22;5074628;27;45348;-72
2023/01/07 08:38:34;;;;;;;;;5.00;5.00;;;;;10.01;65.04;100705.31;5066288;27;46527;-72
2023/01/07 08:41:00;;;;;;;;;5.00;5.00;;;;;9.86;65.25;100660.72;5070090;28;45641;-75
2023/01/07 08:43:26;;;;;;;;;7.33;6.00;;;;;10.57;65.22;100765.63;5057470;28;45399;-75
2023/01/07 08:45:52;;;;;;;;;6.00;5.00;;;;;10.49;64.95;100736.28;5058995;28;45231;-72
2023/01/07 08:48:18;;;;;;;;;7.67;6.00;;;;;9.34;64.64;100515.06;5058958;28;46588;-74
2023/01/07 08:50:51;;;;;;;;;5.00;5.00;;;;;10.93;63.82;100757.84;5062157;28;45482;-72
2023/01/07 08:53:18;;;;;;;;;6.33;5.67;;;;;10.94;63.96;100720.44;5074482;28;45499;-78
2023/01/07 08:55:43;;;;;;;;;8.33;6.00;;;;;11.06;63.04;100675.88;5059172;28;45399;-73
2023/01/07 08:58:08;;;;;;;;;6.00;6.00;;;;;11.15;61.46;100636.88;5058661;28;45402;-74
2023/01/07 09:00:34;;;;;;;;;6.33;6.00;;;;;12.32;60.11;100729.03;5073243;27;45324;-75
2023/01/07 09:03:01;;;;;;;;;7.33;7.33;;;;;11.78;58.73;100573.75;5058620;28;45328;-75
2023/01/07 09:05:26;;;;;;;;;7.67;5.33;;;;;13.27;57.51;100709.38;5074405;28;45538;-75
2023/01/07 09:07:53;;;;;;;;;9.67;7.00;;;;;13.04;55.11;100561.47;5056769;28;46963;-76
2023/01/07 09:10:19;;;;;;;;;7.00;7.00;;;;;14.10;54.20;100722.69;5061422;28;45493;-71
2023/01/07 09:12:44;;;;;;;;;5.00;5.00;;;;;14.06;53.77;100659.88;5060109;28;45413;-74
2023/01/07 09:15:10;;;;;;;;;9.33;8.33;;;;;14.53;52.66;100709.97;5070820;28;45249;-73
2023/01/07 09:17:36;;;;;;;;;7.00;6.00;;;;;14.19;52.97;100668.19;5054283;28;45706;-74
2023/01/07 09:20:03;;;;;;;;;7.00;7.00;;;;;13.59;53.93;100600.94;5031471;28;45586;-74
2023/01/07 09:22:33;;;;;;;;;5.67;5.67;;;;;13.86;54.06;100682.59;5038598;28;45309;-75
2023/01/07 09:24:58;;;;;;;;;12.00;9.00;;;;;13.57;55.12;100678.56;5043632;28;45563;-76
2023/01/07 09:27:25;;;;;;;;;9.00;8.00;;;;;12.01;55.95;100464.81;5047584;28;46946;-75
2023/01/07 09:29:57;;;;;;;;;9.00;8.00;;;;;11.94;56.44;100471.78;5049255;28;45480;-77
2023/01/07 09:32:23;;;;;;;;;5.00;5.00;;;;;11.61;56.76;100460.09;5038856;28;45413;-73
2023/01/07 09:34:49;;;;;;;;;7.00;7.00;;;;;12.85;57.66;100666.66;5058392;28;45442;-73
2023/01/07 09:37:14;;;;;;;;;9.00;6.67;;;;;12.69;57.56;100613.25;5056031;28;45965;-73
2023/01/07 09:39:40;;;;;;;;;7.67;6.67;;;;;12.86;57.68;100667.50;5056275;28;45394;-76
2023/01/07 09:42:47;;;;;;;;;7.33;6.00;;;;;12.80;57.65;100644.94;5057876;28;45448;-73
2023/01/07 09:45:33;;;;;;;;;6.00;5.00;;;;;12.60;58.09;100625.69;5008833;28;45553;-73
2023/01/07 09:48:01;;;;;;;;;7.67;7.00;;;;;12.44;57.72;100609.63;5057484;28;45643;-74
2023/01/07 09:50:43;;;;;;;;;7.00;7.00;;;;;12.63;58.13;100636.06;5053856;28;47722;-76
2023/01/07 09:53:18;;;;;;;;;7.00;7.00;;;;;12.20;58.16;100570.34;5058122;28;45486;-74
2023/01/07 09:55:48;;;;;;;;;6.00;6.00;;;;;12.44;58.33;100641.63;5058115;28;45513;-72
2023/01/07 09:58:17;;;;;;;;;7.00;6.00;;;;;12.02;58.78;100567.75;5058090;28;46199;-74
2023/01/07 10:01:03;;;;;;;;;6.33;6.00;;;;;11.56;58.79;100491.69;5040270;28;45514;-72
2023/01/07 10:03:40;;;;;;;;;6.00;6.00;;;;;11.97;59.09;100563.88;5057990;28;45646;-75
2023/01/07 10:06:33;;;;;;;;;9.00;7.00;;;;;11.74;59.04;100539.56;5038869;28;45637;-74
2023/01/07 10:09:10;;;;;;;;;9.00;7.67;;;;;12.31;59.44;100626.06;5060059;28;46468;-72
2023/01/07 10:11:38;;;;;;;;;8.33;8.33;;;;;12.25;59.12;100610.69;5056878;28;45449;-73
2023/01/07 10:14:14;;;;;;;;;7.00;6.00;;;;;11.75;59.43;100554.56;5040117;28;45344;-74
2023/01/07 10:17:03;;;;;;;;;11.33;8.00;;;;;11.78;59.78;100565.75;5063962;28;45574;-75
2023/01/07 10:19:46;;;;;;;;;6.00;5.00;;;;;12.14;59.70;100629.59;5078552;27;45726;-75
2023/01/07 10:22:33;;;;;;;;;6.00;6.00;;;;;12.03;59.38;100621.91;5078217;27;45579;-75
2023/01/07 10:25:05;;;;;;;;;7.00;6.00;;;;;11.97;59.48;100618.00;5078118;27;45441;-75
2023/01/07 10:27:39;;;;;;;;;7.67;7.00;;;;;12.01;59.50;100631.84;5066148;28;45576;-73
2023/01/07 10:30:30;;;;;;;;;8.00;7.00;;;;;11.70;59.82;100562.19;5069827;28;45387;-75
2023/01/07 10:33:25;;;;;;;;;5.00;5.00;;;;;12.04;59.38;100604.91;5076992;28;45315;-75
2023/01/07 10:36:08;;;;;;;;;6.33;5.33;;;;;12.04;59.79;100599.59;5074247;28;45686;-74
2023/01/07 10:38:40;;;;;;;;;7.00;7.00;;;;;11.90;59.72;100573.50;5079667;27;45247;-74
2023/01/07 10:41:22;;;;;;;;;8.67;8.67;;;;;11.84;59.71;100549.16;5078981;28;45277;-76
2023/01/07 10:43:50;;;;;;;;;6.67;6.67;;;;;12.07;59.55;100586.78;5078381;28;45410;-77
2023/01/07 10:46:32;;;;;;;;;5.67;5.67;;;;;11.96;59.52;100568.38;5077466;27;45339;-74
2023/01/07 10:49:11;;;;;;;;;6.33;6.33;;;;;11.85;59.42;100547.34;5077558;27;45521;-79
2023/01/07 10:51:44;;;;;;;;;8.00;8.00;;;;;11.47;59.70;100498.78;5075232;27;45979;-75
2023/01/07 10:54:30;;;;;;;;;5.67;5.67;;;;;11.64;59.73;100531.69;5085140;27;46445;-78
2023/01/07 10:57:18;;;;;;;;;7.00;7.00;;;;;11.98;59.53;100565.53;5075956;28;45370;-75
2023/01/07 10:59:48;;;;;;;;;7.00;6.00;;;;;11.83;59.90;100536.00;5077568;27;45351;-74
2023/01/07 11:02:17;;;;;;;;;7.33;5.67;;;;;12.05;59.50;100551.47;5075534;28;47536;-77
2023/01/07 11:04:43;;;;;;;;;8.33;7.67;;;;;11.97;58.97;100527.41;5093665;27;45216;-75
2023/01/07 11:07:29;;;;;;;;;7.67;6.67;;;;;12.09;59.25;100549.31;5096370;27;45431;-75
2023/01/07 11:09:57;;;;;;;;;5.33;5.33;;;;;11.48;59.36;100441.06;5076483;28;45402;-78
2023/01/07 11:12:57;;;;;;;;;7.67;7.67;;;;;12.03;59.74;100523.31;5092379;27;47589;-76
2023/01/07 11:15:29;;;;;;;;;7.00;7.00;;;;;12.07;59.95;100520.16;5039720;28;45601;-76
2023/01/07 11:17:59;;;;;;;;;4.33;4.33;;;;;12.15;59.45;100508.69;5057070;28;45277;-75
2023/01/07 11:21:03;;;;;;;;;5.00;5.00;;;;;12.11;59.27;100502.00;5038995;28;45399;-76
2023/01/07 11:23:37;;;;;;;;;6.00;5.00;;;;;12.10;59.00;100487.03;5042581;28;47691;-76
2023/01/07 11:26:28;;;;;;;;;7.33;6.67;;;;;12.21;59.02;100502.72;5044016;28;45403;-74
2023/01/07 11:29:15;;;;;;;;;7.00;6.00;;;;;12.28;58.34;100492.25;5059987;28;45226;-74
2023/01/07 11:31:49;;;;;;;;;9.33;7.33;;;;;11.88;58.08;100432.47;5043454;28;45171;-74
2023/01/07 11:34:21;;;;;;;;;5.00;5.00;;;;;12.33;58.69;100482.78;5060256;28;45547;-74
2023/01/07 11:36:46;;;;;;;;;5.67;5.33;;;;;11.97;58.26;100426.19;5036675;28;46177;-73
2023/01/07 11:39:22;;;;;;;;;7.00;5.33;;;;;11.81;57.99;100383.47;5053012;28;45488;-73
2023/01/07 11:41:55;;;;;;;;;5.00;5.00;;;;;12.30;58.45;100483.09;5049142;28;45527;-74